Time;durP1;ratioP1;P1;durP2;ratioP2;P2;SDS_P1;SDS_P2;PMS_P1;PMS_P2;Temp;Humidity;BMP_temperature;BMP_pressure;BME280_temperature;BME280_humidity;BME280_pressure;Samples;Min_cycle;Max_cycle;Signal;HPM_P1;HPM_P2
2022/10/15 00:01:40;;;;;;;11.65;10.55;;;23.30;99.90;;;;;;6243762;27;89187;-66
2022/10/15 00:04:42;;;;;;;11.73;10.52;;;23.30;99.90;;;;;;6252925;27;89124;-66
2022/10/15 00:07:45;;;;;;;11.05;10.05;;;23.30;99.90;;;;;;6244585;27;89022;-66
2022/10/15 00:10:46;;;;;;;11.32;10.32;;;23.30;99.90;;;;;;6255823;27;89083;-66
2022/10/15 00:13:52;;;;;;;11.40;10.30;;;23.30;99.90;;;;;;6244235;27;88000;-66
2022/10/15 00:16:54;;;;;;;10.77;9.82;;;23.30;99.90;;;;;;6255185;27;87998;-65
2022/10/15 00:19:58;;;;;;;11.32;10.23;;;23.30;99.90;;;;;;6242069;27;89128;-66
2022/10/15 00:23:00;;;;;;;11.13;10.02;;;23.30;99.90;;;;;;6236389;27;89577;-66
2022/10/15 00:26:06;;;;;;;11.30;10.10;;;23.30;99.90;;;;;;6241341;27;89997;-66
2022/10/15 00:29:09;;;;;;;11.55;10.40;;;23.30;99.90;;;;;;6241200;27;89083;-65
2022/10/15 00:32:11;;;;;;;11.38;10.38;;;23.20;99.90;;;;;;6254493;27;89060;-66
2022/10/15 00:35:13;;;;;;;10.77;9.68;;;23.20;99.90;;;;;;6252057;27;89155;-66
2022/10/15 00:38:16;;;;;;;11.50;10.40;;;23.30;99.90;;;;;;6255347;27;89060;-66
2022/10/15 00:41:20;;;;;;;11.15;10.13;;;23.20;99.90;;;;;;6233653;27;89397;-66
2022/10/15 00:44:48;;;;;;;11.35;10.25;;;23.20;99.90;;;;;;6239253;27;88278;-65
2022/10/15 00:47:53;;;;;;;11.15;10.10;;;23.30;99.90;;;;;;6244715;27;88353;-65
2022/10/15 00:50:55;;;;;;;10.93;9.93;;;23.20;99.90;;;;;;6254302;27;89101;-65
2022/10/15 00:53:57;;;;;;;11.85;10.75;;;23.20;99.90;;;;;;6255934;27;89466;-66
2022/10/15 00:57:00;;;;;;;10.90;9.90;;;23.30;99.90;;;;;;6238602;27;90102;-66
2022/10/15 01:00:08;;;;;;;11.20;10.10;;;23.20;99.90;;;;;;6246162;27;89180;-66
2022/10/15 01:03:11;;;;;;;11.27;10.27;;;23.20;99.90;;;;;;6253810;27;89012;-66
2022/10/15 01:06:13;;;;;;;11.32;10.23;;;23.20;99.90;;;;;;6253905;27;89156;-66
2022/10/15 01:09:15;;;;;;;11.35;10.35;;;23.20;99.90;;;;;;6251397;27;89130;-65
2022/10/15 01:12:26;;;;;;;10.98;9.93;;;23.20;99.90;;;;;;6254842;27;87977;-66
2022/10/15 01:15:38;;;;;;;11.77;10.65;;;23.20;99.90;;;;;;6252914;27;89078;-66
2022/10/15 01:18:45;;;;;;;11.45;10.35;;;23.20;99.90;;;;;;6250008;27;88319;-66
2022/10/15 01:21:52;;;;;;;11.30;10.20;;;23.20;99.90;;;;;;6245275;27;89406;-66
2022/10/15 01:25:10;;;;;;;11.85;10.68;;;23.20;99.90;;;;;;6247575;27;89155;-66
2022/10/15 01:28:24;;;;;;;11.25;9.90;;;23.20;99.90;;;;;;6240702;27;90015;-65
2022/10/15 01:31:35;;;;;;;11.63;10.55;;;23.20;99.90;;;;;;6253193;27;89081;-66
2022/10/15 01:34:46;;;;;;;11.43;10.25;;;23.20;99.90;;;;;;6250464;27;89499;-66
2022/10/15 01:37:55;;;;;;;11.52;10.43;;;23.20;99.90;;;;;;6241190;27;89244;-65
2022/10/15 01:41:00;;;;;;;11.30;10.20;;;23.10;99.90;;;;;;6245998;27;89104;-65
2022/10/15 01:44:07;;;;;;;11.70;10.50;;;23.10;99.90;;;;;;6250830;28;89179;-66
2022/10/15 01:47:16;;;;;;;10.90;9.90;;;23.10;99.90;;;;;;6252527;27;89347;-66
2022/10/15 01:50:20;;;;;;;11.52;10.43;;;23.20;99.90;;;;;;6243489;27;88563;-65
2022/10/15 01:53:25;;;;;;;11.23;10.18;;;23.10;99.90;;;;;;6229189;27;90628;-66
2022/10/15 01:56:29;;;;;;;11.00;9.93;;;23.10;99.90;;;;;;6241966;27;88437;-65
2022/10/15 01:59:33;;;;;;;11.05;10.05;;;23.10;99.90;;;;;;6250100;27;90127;-66
2022/10/15 02:02:36;;;;;;;10.98;9.98;;;23.10;99.90;;;;;;6243573;27;88102;-65
2022/10/15 02:05:42;;;;;;;11.38;10.32;;;23.10;99.90;;;;;;6252102;27;89164;-66
2022/10/15 02:08:56;;;;;;;11.75;10.65;;;23.10;99.90;;;;;;6252601;27;89189;-65
2022/10/15 02:12:08;;;;;;;11.57;10.48;;;23.10;99.90;;;;;;6247329;27;91623;-66
2022/10/15 02:15:16;;;;;;;10.60;9.60;;;23.10;99.90;;;;;;6245238;27;89042;-66
2022/10/15 02:18:28;;;;;;;10.15;9.23;;;23.10;99.90;;;;;;6247107;27;89615;-66
2022/10/15 02:21:35;;;;;;;11.15;10.05;;;23.10;99.90;;;;;;6247841;27;88343;-66
2022/10/15 02:24:41;;;;;;;10.80;9.77;;;23.10;99.90;;;;;;6257585;27;90044;-65
2022/10/15 02:27:46;;;;;;;11.25;10.10;;;23.10;99.90;;;;;;6246055;27;89169;-66
2022/10/15 02:30:52;;;;;;;11.60;10.50;;;23.10;99.90;;;;;;6253842;27;90019;-65
2022/10/15 02:34:01;;;;;;;11.55;10.45;;;23.10;99.90;;;;;;6249434;27;89156;-66
2022/10/15 02:37:05;;;;;;;11.20;10.10;;;23.10;99.90;;;;;;6251055;27;89059;-66
2022/10/15 02:40:08;;;;;;;11.50;10.30;;;23.10;99.90;;;;;;6251619;27;89000;-66
2022/10/15 02:43:13;;;;;;;11.90;10.70;;;23.10;99.90;;;;;;6247244;27;89150;-66
2022/10/15 02:46:17;;;;;;;11.75;10.57;;;23.10;99.90;;;;;;6244135;27;89053;-66
2022/10/15 02:49:21;;;;;;;11.15;10.05;;;23.10;99.90;;;;;;6245398;28;89071;-66
2022/10/15 02:52:23;;;;;;;11.18;10.07;;;23.10;99.90;;;;;;6255862;27;88578;-66
2022/10/15 02:55:25;;;;;;;12.35;11.05;;;23.10;99.90;;;;;;6253590;27;88361;-66
2022/10/15 02:58:28;;;;;;;12.18;11.07;;;23.10;99.90;;;;;;6255303;27;89076;-66
2022/10/15 03:01:30;;;;;;;10.93;9.98;;;23.10;99.90;;;;;;6254699;27;90217;-66
2022/10/15 03:04:33;;;;;;;11.48;10.30;;;23.10;99.90;;;;;;6247605;27;89309;-66
2022/10/15 03:07:35;;;;;;;10.98;9.98;;;23.10;99.90;;;;;;6256707;27;89118;-66
2022/10/15 03:10:37;;;;;;;11.18;10.07;;;23.10;99.90;;;;;;6245920;27;89077;-66
2022/10/15 03:13:39;;;;;;;11.30;10.20;;;23.00;99.90;;;;;;6247321;27;89029;-66
2022/10/15 03:16:41;;;;;;;10.95;9.95;;;23.00;99.90;;;;;;6255771;27;89234;-66
2022/10/15 03:19:45;;;;;;;11.30;10.15;;;23.00;99.90;;;;;;6257328;27;89132;-66
2022/10/15 03:22:47;;;;;;;11.07;9.98;;;23.10;99.90;;;;;;6249041;27;87263;-66
2022/10/15 03:25:49;;;;;;;11.75;10.55;;;23.10;99.90;;;;;;6244757;27;89339;-66
2022/10/15 03:28:51;;;;;;;11.00;10.00;;;23.00;99.90;;;;;;6257639;27;89159;-66
2022/10/15 03:31:53;;;;;;;10.40;9.40;;;23.10;99.90;;;;;;6255497;27;89068;-66
2022/10/15 03:34:56;;;;;;;11.32;10.25;;;23.00;99.90;;;;;;6254829;27;87991;-66
2022/10/15 03:37:58;;;;;;;11.23;10.23;;;23.00;99.90;;;;;;6256536;27;89036;-66
2022/10/15 03:41:00;;;;;;;10.70;9.73;;;23.00;99.90;;;;;;6249832;27;89070;-66
2022/10/15 03:44:03;;;;;;;11.10;10.00;;;23.00;99.90;;;;;;6256382;27;89014;-66
2022/10/15 03:47:05;;;;;;;11.30;10.20;;;23.00;99.90;;;;;;6235523;27;89057;-66
2022/10/15 03:50:09;;;;;;;11.25;10.23;;;23.00;99.90;;;;;;6250859;28;89162;-66
2022/10/15 03:53:11;;;;;;;11.27;10.18;;;23.00;99.90;;;;;;6255697;27;88412;-66
2022/10/15 03:56:13;;;;;;;10.82;9.80;;;23.00;99.90;;;;;;6255525;27;89325;-65
2022/10/15 03:59:16;;;;;;;10.73;9.73;;;23.00;99.90;;;;;;6255924;27;89104;-66
2022/10/15 04:02:18;;;;;;;11.38;10.27;;;23.00;99.90;;;;;;6247396;27;88796;-63
2022/10/15 04:05:21;;;;;;;10.52;9.55;;;23.00;99.90;;;;;;6250996;27;88968;-64
2022/10/15 04:08:23;;;;;;;10.15;9.20;;;23.00;99.90;;;;;;6256830;27;89184;-64
2022/10/15 04:11:25;;;;;;;10.18;9.27;;;23.00;99.90;;;;;;6256367;27;89109;-64
2022/10/15 04:14:27;;;;;;;11.52;10.43;;;23.00;99.90;;;;;;6246048;27;87931;-64
2022/10/15 04:17:29;;;;;;;10.80;9.80;;;23.00;99.90;;;;;;6255104;27;87953;-64
2022/10/15 04:20:33;;;;;;;11.45;10.35;;;23.10;99.90;;;;;;6255741;27;89052;-64
2022/10/15 04:23:35;;;;;;;10.57;9.60;;;23.00;99.90;;;;;;6248705;28;88342;-64
2022/10/15 04:26:37;;;;;;;10.90;9.90;;;23.00;99.90;;;;;;6239363;27;89353;-64
2022/10/15 04:29:39;;;;;;;11.38;10.35;;;23.10;99.90;;;;;;6244359;27;89079;-64
2022/10/15 04:32:41;;;;;;;10.45;9.45;;;23.00;99.90;;;;;;6248156;27;90052;-64
2022/10/15 04:35:45;;;;;;;10.43;9.52;;;23.10;99.90;;;;;;6255272;27;89007;-64
2022/10/15 04:38:47;;;;;;;10.77;9.77;;;23.10;99.90;;;;;;6254934;27;89266;-64
2022/10/15 04:41:49;;;;;;;10.25;9.35;;;23.10;99.90;;;;;;6255708;28;89013;-64
2022/10/15 04:44:51;;;;;;;11.25;10.15;;;23.10;99.90;;;;;;6254671;27;89448;-64
2022/10/15 04:47:52;;;;;;;10.38;9.35;;;23.10;99.90;;;;;;6254365;27;89510;-64
2022/10/15 04:51:02;;;;;;;10.35;9.45;;;23.00;99.90;;;;;;6256380;28;89206;-64
2022/10/15 04:54:04;;;;;;;9.95;9.05;;;23.00;99.90;;;;;;6255545;27;87238;-64
2022/10/15 04:57:06;;;;;;;10.32;9.43;;;23.00;99.90;;;;;;6255749;27;88057;-64
2022/10/15 05:00:10;;;;;;;10.27;9.38;;;23.00;99.90;;;;;;6254925;27;89052;-64
2022/10/15 05:03:12;;;;;;;10.48;9.48;;;23.00;99.90;;;;;;6255405;27;89981;-63
2022/10/15 05:06:17;;;;;;;10.10;9.20;;;23.00;99.90;;;;;;6255539;27;89671;-63
2022/10/15 05:09:19;;;;;;;9.98;9.07;;;23.00;99.90;;;;;;6255071;27;87970;-64
2022/10/15 05:12:21;;;;;;;9.65;8.77;;;23.00;99.90;;;;;;6254125;27;89178;-63
2022/10/15 05:15:25;;;;;;;10.20;9.20;;;23.00;99.90;;;;;;6253974;27;89654;-64
2022/10/15 05:18:27;;;;;;;9.77;8.77;;;23.10;99.90;;;;;;6252119;27;89375;-64
2022/10/15 05:21:32;;;;;;;9.63;8.73;;;23.00;99.90;;;;;;6245242;27;89224;-64
2022/10/15 05:24:34;;;;;;;9.73;8.82;;;23.00;99.90;;;;;;6245595;28;89295;-64
2022/10/15 05:27:36;;;;;;;9.27;8.48;;;23.00;99.90;;;;;;6254285;27;89051;-64
2022/10/15 05:30:38;;;;;;;9.95;8.95;;;23.00;99.90;;;;;;6241131;27;89071;-64
2022/10/15 05:33:41;;;;;;;9.63;8.73;;;23.00;99.90;;;;;;6250073;27;90073;-64
2022/10/15 05:36:44;;;;;;;9.13;8.32;;;23.00;99.90;;;;;;6241846;27;89363;-64
2022/10/15 05:39:46;;;;;;;9.27;8.43;;;23.00;99.90;;;;;;6235230;27;89163;-64
2022/10/15 05:42:52;;;;;;;9.18;8.38;;;23.00;99.90;;;;;;6242743;28;87971;-64
2022/10/15 05:45:54;;;;;;;9.52;8.63;;;23.00;99.90;;;;;;6252844;27;89424;-64
2022/10/15 05:48:57;;;;;;;9.45;8.63;;;23.00;99.90;;;;;;6252267;27;87974;-64
2022/10/15 05:52:01;;;;;;;9.60;8.70;;;23.10;99.90;;;;;;6258378;27;89075;-64
2022/10/15 05:55:03;;;;;;;9.07;8.27;;;23.00;99.90;;;;;;6258783;27;88728;-64
2022/10/15 05:58:05;;;;;;;9.18;8.38;;;23.00;99.90;;;;;;6255634;27;89219;-64
2022/10/15 06:01:11;;;;;;;8.52;7.82;;;23.00;99.90;;;;;;6259292;28;89116;-64
2022/10/15 06:04:13;;;;;;;9.10;8.30;;;23.10;99.90;;;;;;6258491;27;90319;-64
2022/10/15 06:07:16;;;;;;;9.18;8.38;;;23.10;99.90;;;;;;6249020;27;89466;-64
2022/10/15 06:10:18;;;;;;;8.73;7.95;;;23.00;99.90;;;;;;6244920;27;88981;-64
2022/10/15 06:13:20;;;;;;;8.43;7.72;;;23.10;99.90;;;;;;6256926;27;89048;-64
2022/10/15 06:16:22;;;;;;;8.98;8.18;;;23.10;99.90;;;;;;6257369;27;89407;-64
2022/10/15 06:19:24;;;;;;;9.00;8.20;;;23.10;99.90;;;;;;6257361;27;88112;-64
2022/10/15 06:22:30;;;;;;;8.88;8.07;;;23.10;99.90;;;;;;6258266;27;89164;-64
2022/10/15 06:25:33;;;;;;;9.05;8.20;;;23.10;99.90;;;;;;6256908;27;88396;-64
2022/10/15 06:28:36;;;;;;;8.27;7.57;;;23.10;99.90;;;;;;6256500;27;87971;-64
2022/10/15 06:31:38;;;;;;;8.93;8.13;;;23.10;99.90;;;;;;6236087;27;89559;-64
2022/10/15 06:34:40;;;;;;;8.52;7.75;;;23.10;99.90;;;;;;6243720;27;89169;-64
2022/10/15 06:37:44;;;;;;;8.48;7.78;;;23.10;99.90;;;;;;6247768;27;87969;-63
2022/10/15 06:40:46;;;;;;;8.63;7.82;;;23.10;99.90;;;;;;6254600;27;89303;-64
2022/10/15 06:43:49;;;;;;;8.20;7.47;;;23.10;99.90;;;;;;6246431;27;89174;-64
2022/10/15 06:46:51;;;;;;;8.38;7.68;;;23.10;99.90;;;;;;6258644;27;89131;-64
2022/10/15 06:49:53;;;;;;;8.48;7.68;;;23.10;99.90;;;;;;6257581;27;89022;-64
2022/10/15 06:52:56;;;;;;;8.43;7.63;;;23.10;99.90;;;;;;6257630;27;87989;-64
2022/10/15 06:55:59;;;;;;;7.88;7.18;;;23.10;99.90;;;;;;6256070;27;88346;-64
2022/10/15 06:59:01;;;;;;;8.13;7.43;;;23.10;99.90;;;;;;6251108;27;89047;-64
2022/10/15 07:02:04;;;;;;;7.88;7.18;;;23.20;99.90;;;;;;6250238;27;89219;-63
2022/10/15 07:05:07;;;;;;;8.07;7.38;;;23.10;99.90;;;;;;6255992;27;90209;-64
2022/10/15 07:08:10;;;;;;;7.75;7.05;;;23.20;99.90;;;;;;6255372;27;89126;-64
2022/10/15 07:11:12;;;;;;;8.40;7.60;;;23.20;99.90;;;;;;6252749;27;89207;-64
2022/10/15 07:14:14;;;;;;;8.52;7.72;;;23.10;99.90;;;;;;6257191;27;89276;-64
2022/10/15 07:17:17;;;;;;;7.82;7.10;;;23.10;99.90;;;;;;6257634;27;88007;-64
2022/10/15 07:20:20;;;;;;;7.60;6.93;;;23.10;99.90;;;;;;6254210;27;89134;-65
2022/10/15 07:23:23;;;;;;;8.00;7.30;;;23.10;99.90;;;;;;6256088;27;89138;-64
2022/10/15 07:26:27;;;;;;;7.70;7.00;;;23.20;99.90;;;;;;6253922;27;88296;-64
2022/10/15 07:29:30;;;;;;;7.45;6.65;;;23.20;99.90;;;;;;6255590;27;89458;-64
2022/10/15 07:32:32;;;;;;;7.93;7.13;;;23.20;99.90;;;;;;6254043;27;89370;-64
2022/10/15 07:35:34;;;;;;;7.70;7.00;;;23.20;99.90;;;;;;6255909;27;90432;-64
2022/10/15 07:38:38;;;;;;;7.47;6.75;;;23.20;99.90;;;;;;6255029;27;89192;-64
2022/10/15 07:41:40;;;;;;;8.00;7.30;;;23.20;99.90;;;;;;6253139;27;88723;-64
2022/10/15 07:44:42;;;;;;;8.60;7.80;;;23.20;99.90;;;;;;6254362;27;89124;-64
2022/10/15 07:47:44;;;;;;;8.60;7.03;;;23.20;99.90;;;;;;6254456;27;89516;-64
2022/10/15 07:50:46;;;;;;;7.60;6.90;;;23.20;99.90;;;;;;6255230;27;89151;-64
2022/10/15 07:53:50;;;;;;;8.05;7.32;;;23.10;99.90;;;;;;6254972;27;88118;-64
2022/10/15 07:56:52;;;;;;;7.28;6.68;;;23.20;99.90;;;;;;6250465;27;88260;-64
2022/10/15 07:59:54;;;;;;;7.75;7.05;;;23.20;99.90;;;;;;6254246;27;89105;-64
2022/10/15 08:02:56;;;;;;;7.10;6.50;;;23.20;99.90;;;;;;6253977;27;89125;-64
2022/10/15 08:06:00;;;;;;;7.78;7.07;;;23.20;99.90;;;;;;6255421;27;90049;-65
2022/10/15 08:09:04;;;;;;;7.47;6.78;;;23.20;99.90;;;;;;6256012;27;89026;-64
2022/10/15 08:12:07;;;;;;;7.15;6.50;;;23.20;99.90;;;;;;6255111;27;90549;-63
2022/10/15 08:15:10;;;;;;;7.05;6.35;;;23.20;99.90;;;;;;6251167;28;90170;-63
2022/10/15 08:18:12;;;;;;;7.22;6.57;;;23.20;99.90;;;;;;6244796;27;89160;-64
2022/10/15 08:21:14;;;;;;;6.93;6.32;;;23.20;99.90;;;;;;6243840;27;89148;-64
2022/10/15 08:24:17;;;;;;;6.97;6.30;;;23.30;99.90;;;;;;6251620;27;89365;-63
2022/10/15 08:27:19;;;;;;;7.40;6.70;;;23.20;99.90;;;;;;6255678;27;88504;-64
2022/10/15 08:30:21;;;;;;;6.93;6.22;;;23.30;99.90;;;;;;6253502;27;89148;-63
2022/10/15 08:33:23;;;;;;;7.45;6.72;;;23.30;99.90;;;;;;6253921;27;89063;-64
2022/10/15 08:36:25;;;;;;;7.00;6.38;;;23.30;99.90;;;;;;6252247;27;90030;-64
2022/10/15 08:39:29;;;;;;;7.35;6.63;;;23.30;99.90;;;;;;6251318;27;88014;-63
2022/10/15 08:42:36;;;;;;;6.78;6.10;;;23.40;99.90;;;;;;6251222;27;89123;-63
2022/10/15 08:45:43;;;;;;;7.30;6.60;;;23.40;99.90;;;;;;6252102;27;89064;-63
2022/10/15 08:48:49;;;;;;;7.75;6.95;;;23.40;99.90;;;;;;6254024;27;89349;-63
2022/10/15 08:51:55;;;;;;;6.90;6.20;;;23.40;99.90;;;;;;6254286;27;89163;-63
2022/10/15 08:55:01;;;;;;;7.20;6.50;;;23.40;99.90;;;;;;6254098;27;89128;-63
2022/10/15 08:58:12;;;;;;;6.88;6.15;;;23.40;99.90;;;;;;6254180;27;88353;-64
2022/10/15 09:01:21;;;;;;;6.40;5.80;;;23.40;99.90;;;;;;6256361;28;87933;-65
2022/10/15 09:04:31;;;;;;;6.75;6.05;;;23.40;99.90;;;;;;6256160;27;89129;-65
2022/10/15 09:07:39;;;;;;;6.75;6.15;;;23.40;99.90;;;;;;6240118;27;89978;-64
2022/10/15 09:10:46;;;;;;;7.10;5.97;;;23.40;99.90;;;;;;6255888;28;89206;-64
2022/10/15 09:13:49;;;;;;;6.90;6.30;;;23.40;99.90;;;;;;6243782;27;88117;-64
2022/10/15 09:16:51;;;;;;;16.60;8.40;;;23.40;99.90;;;;;;6251969;27;89442;-63
2022/10/15 09:19:55;;;;;;;12.43;7.35;;;23.40;99.90;;;;;;6243753;27;89124;-64
2022/10/15 09:22:57;;;;;;;17.73;8.40;;;23.40;99.90;;;;;;6243470;27;88003;-64
2022/10/15 09:26:08;;;;;;;16.17;8.25;;;23.40;99.90;;;;;;6247606;27;89420;-64
2022/10/15 09:29:16;;;;;;;12.45;6.25;;;23.50;99.90;;;;;;6256325;27;88359;-64
2022/10/15 09:32:26;;;;;;;5.82;4.15;;;23.50;99.90;;;;;;6256716;27;87402;-64
2022/10/15 09:35:32;;;;;;;7.55;4.00;;;23.30;99.90;;;;;;6252861;27;87832;-64
2022/10/15 09:38:43;;;;;;;6.38;3.28;;;23.30;99.90;;;;;;6254779;27;90380;-64
2022/10/15 09:41:55;;;;;;;6.38;3.65;;;23.20;99.90;;;;;;6259536;28;89111;-64
2022/10/15 09:45:00;;;;;;;10.43;4.10;;;23.20;99.90;;;;;;6257671;27;89159;-64
2022/10/15 09:48:05;;;;;;;15.55;5.30;;;23.10;99.90;;;;;;6257468;28;89083;-64
2022/10/15 09:51:16;;;;;;;22.40;7.10;;;23.10;99.90;;;;;;6247307;27;89199;-64
2022/10/15 09:54:24;;;;;;;19.30;6.38;;;23.10;99.90;;;;;;6234900;27;88020;-63
2022/10/15 09:57:30;;;;;;;22.90;8.38;;;23.10;99.90;;;;;;6245503;27;89388;-64
2022/10/15 10:00:58;;;;;;;22.50;7.50;;;23.10;99.90;;;;;;6258917;27;88620;-64
2022/10/15 10:04:18;;;;;;;14.07;5.70;;;23.10;99.90;;;;;;6258667;27;89498;-64
2022/10/15 10:07:30;;;;;;;11.98;4.85;;;23.10;99.90;;;;;;6258849;27;89134;-64
2022/10/15 10:10:36;;;;;;;8.98;4.15;;;23.10;99.90;;;;;;6258479;27;89950;-64
2022/10/15 10:13:44;;;;;;;15.07;4.15;;;23.10;99.90;;;;;;6257881;27;89104;-64
2022/10/15 10:17:05;;;;;;;7.55;3.65;;;23.20;99.90;;;;;;6254303;27;89147;-63
2022/10/15 10:20:17;;;;;;;5.47;2.70;;;23.20;99.90;;;;;;6256010;27;88894;-64
2022/10/15 10:23:22;;;;;;;4.57;2.47;;;23.10;99.90;;;;;;6254886;27;89073;-64
2022/10/15 10:26:24;;;;;;;9.02;2.25;;;23.20;99.90;;;;;;6259583;27;89035;-64
2022/10/15 10:29:30;;;;;;;5.00;2.00;;;23.20;99.90;;;;;;6253034;27;89173;-64
2022/10/15 10:32:34;;;;;;;6.03;2.17;;;23.20;99.90;;;;;;6255909;27;87336;-64
2022/10/15 10:35:45;;;;;;;4.03;1.85;;;23.20;99.90;;;;;;6256221;27;89477;-63
2022/10/15 10:38:56;;;;;;;5.35;2.50;;;23.20;99.90;;;;;;6246401;27;89051;-63
2022/10/15 10:42:00;;;;;;;3.83;1.90;;;23.20;99.90;;;;;;6246694;28;90048;-63
2022/10/15 10:45:20;;;;;;;5.65;1.90;;;23.30;99.90;;;;;;6257912;27;87893;-63
2022/10/15 10:48:25;;;;;;;4.43;1.80;;;23.30;99.90;;;;;;6256288;27;89078;-64
2022/10/15 10:51:29;;;;;;;5.63;1.88;;;23.40;99.90;;;;;;6257397;27;89012;-63
2022/10/15 10:54:33;;;;;;;3.55;1.70;;;23.40;99.90;;;;;;6243712;27;89107;-63
2022/10/15 10:57:49;;;;;;;2.53;1.60;;;23.40;99.90;;;;;;6234258;28;89001;-63
2022/10/15 11:00:55;;;;;;;3.65;1.27;;;23.40;99.90;;;;;;6254497;27;88966;-63
2022/10/15 11:03:57;;;;;;;1.63;1.20;;;23.50;99.90;;;;;;6256379;27;87229;-63
2022/10/15 11:07:03;;;;;;;2.85;1.30;;;23.40;99.90;;;;;;6251131;27;88382;-63
2022/10/15 11:10:11;;;;;;;1.73;1.30;;;23.40;99.90;;;;;;6254578;27;87990;-63
2022/10/15 11:13:34;;;;;;;2.60;1.10;;;23.40;99.90;;;;;;6250530;27;90352;-63
2022/10/15 11:16:49;;;;;;;3.08;1.58;;;23.40;99.90;;;;;;6255375;27;89198;-64
2022/10/15 11:19:57;;;;;;;2.35;1.40;;;23.40;99.90;;;;;;6256608;27;89068;-64
2022/10/15 11:23:13;;;;;;;3.67;1.77;;;23.40;99.90;;;;;;6245518;27;88797;-63
2022/10/15 11:26:29;;;;;;;3.58;1.50;;;23.40;99.90;;;;;;6255287;27;89109;-64
2022/10/15 11:29:36;;;;;;;3.13;1.85;;;23.40;99.90;;;;;;6256373;27;89191;-63
2022/10/15 11:32:48;;;;;;;4.53;1.92;;;23.40;99.90;;;;;;6255093;27;89103;-64
2022/10/15 11:35:59;;;;;;;2.28;1.45;;;23.40;99.90;;;;;;6251505;27;88427;-63
2022/10/15 11:39:17;;;;;;;1.60;1.27;;;23.40;99.90;;;;;;6255310;27;88849;-64
2022/10/15 11:42:25;;;;;;;2.35;1.25;;;23.50;99.90;;;;;;6242982;27;89147;-64
2022/10/15 11:45:43;;;;;;;2.55;1.50;;;23.40;99.90;;;;;;6249260;27;90392;-63
2022/10/15 11:49:04;;;;;;;2.55;1.30;;;23.40;99.90;;;;;;6254971;27;89145;-64
2022/10/15 11:52:28;;;;;;;2.58;1.40;;;23.50;99.90;;;;;;6256945;27;88958;-64
2022/10/15 11:55:37;;;;;;;2.38;1.25;;;23.40;99.90;;;;;;6247174;27;89109;-64
2022/10/15 11:58:44;;;;;;;6.63;1.92;;;23.40;99.90;;;;;;6252533;27;88037;-64
2022/10/15 12:01:52;;;;;;;6.05;2.03;;;23.40;99.90;;;;;;6254771;27;89025;-64
2022/10/15 12:04:59;;;;;;;13.23;2.63;;;23.40;99.90;;;;;;6247814;27;89101;-63
2022/10/15 12:08:03;;;;;;;17.73;3.00;;;23.40;99.90;;;;;;6248053;27;88694;-63
2022/10/15 12:11:20;;;;;;;13.43;2.80;;;23.40;99.90;;;;;;6252767;27;89428;-64
2022/10/15 12:14:28;;;;;;;13.55;2.88;;;23.40;99.90;;;;;;6250143;27;89167;-64
2022/10/15 12:17:41;;;;;;;15.18;3.08;;;23.40;99.90;;;;;;6252606;27;90175;-63
2022/10/15 12:20:45;;;;;;;14.02;2.90;;;23.40;99.90;;;;;;6253484;27;89089;-64
2022/10/15 12:23:47;;;;;;;12.13;3.17;;;23.40;99.90;;;;;;6254495;27;89070;-63
2022/10/15 12:26:49;;;;;;;14.75;3.25;;;23.40;99.90;;;;;;6252686;27;89090;-64
2022/10/15 12:30:11;;;;;;;13.18;3.00;;;23.50;99.90;;;;;;6254113;27;89184;-63
2022/10/15 12:33:39;;;;;;;14.00;2.63;;;23.50;99.90;;;;;;6252674;27;89080;-64
2022/10/15 12:36:42;;;;;;;12.35;2.70;;;23.40;99.90;;;;;;6243181;27;89211;-63
2022/10/15 12:39:45;;;;;;;14.95;3.33;;;23.50;99.90;;;;;;6253061;27;88378;-64
2022/10/15 12:42:51;;;;;;;10.88;2.80;;;23.50;99.90;;;;;;6250960;27;89243;-63
2022/10/15 12:45:56;;;;;;;10.50;2.95;;;23.50;99.90;;;;;;6252186;27;89085;-63
2022/10/15 12:48:58;;;;;;;9.88;2.72;;;23.50;99.90;;;;;;6252247;27;90046;-63
2022/10/15 12:52:22;;;;;;;9.75;2.30;;;23.50;99.90;;;;;;6252891;27;88772;-64
2022/10/15 12:55:30;;;;;;;12.73;2.72;;;23.50;99.90;;;;;;6251174;27;89040;-63
2022/10/15 12:58:33;;;;;;;12.52;2.65;;;23.50;99.90;;;;;;6253598;27;88956;-64
2022/10/15 13:01:52;;;;;;;9.60;2.78;;;23.50;99.90;;;;;;6253681;27;87864;-64
2022/10/15 13:04:54;;;;;;;8.55;2.60;;;23.50;99.90;;;;;;6255673;27;90450;-63
2022/10/15 13:08:01;;;;;;;9.43;2.38;;;23.50;99.90;;;;;;6254591;27;88044;-64
2022/10/15 13:11:03;;;;;;;7.90;2.08;;;23.50;99.90;;;;;;6256226;27;87237;-63
2022/10/15 13:14:18;;;;;;;9.77;2.40;;;23.50;99.90;;;;;;6254232;27;89137;-63
2022/10/15 13:17:22;;;;;;;6.32;2.05;;;23.50;99.90;;;;;;6252271;27;89093;-64
2022/10/15 13:20:35;;;;;;;6.18;1.85;;;23.50;99.90;;;;;;6242056;27;90091;-64
2022/10/15 13:23:46;;;;;;;6.10;1.85;;;23.50;99.90;;;;;;6253529;27;89083;-64
2022/10/15 13:26:48;;;;;;;4.18;1.70;;;23.40;99.90;;;;;;6254410;27;89175;-64
2022/10/15 13:29:56;;;;;;;5.40;1.80;;;23.40;99.90;;;;;;6254555;27;88170;-64
2022/10/15 13:32:58;;;;;;;7.32;2.10;;;23.40;99.90;;;;;;6252408;27;87536;-64
2022/10/15 13:36:06;;;;;;;6.90;2.25;;;23.40;99.90;;;;;;6241358;27;87992;-64
2022/10/15 13:39:26;;;;;;;7.63;2.22;;;23.40;99.90;;;;;;6253138;27;89256;-64
2022/10/15 13:42:30;;;;;;;5.70;1.80;;;23.40;99.90;;;;;;6243390;28;88373;-64
2022/10/15 13:45:33;;;;;;;6.20;2.10;;;23.40;99.90;;;;;;6254455;27;88976;-64
2022/10/15 13:48:42;;;;;;;5.35;1.92;;;23.40;99.90;;;;;;6254210;27;89084;-64
2022/10/15 13:51:46;;;;;;;5.13;2.00;;;23.40;99.90;;;;;;6253465;27;90390;-64
2022/10/15 13:54:49;;;;;;;4.28;1.85;;;23.40;99.90;;;;;;6249726;27;87944;-64
2022/10/15 13:57:59;;;;;;;4.90;2.05;;;23.40;99.90;;;;;;6245635;27;89587;-64
2022/10/15 14:01:07;;;;;;;5.80;1.80;;;23.50;99.90;;;;;;6255197;27;89154;-64
2022/10/15 14:04:16;;;;;;;4.72;1.98;;;23.50;99.90;;;;;;6254814;27;89280;-64
2022/10/15 14:07:25;;;;;;;6.82;1.90;;;23.40;99.90;;;;;;6241686;27;89582;-64
2022/10/15 14:10:29;;;;;;;4.03;1.83;;;23.40;99.90;;;;;;6253238;27;89271;-64
2022/10/15 14:13:31;;;;;;;3.97;1.50;;;23.40;99.90;;;;;;6259435;27;88271;-64
2022/10/15 14:16:39;;;;;;;4.35;2.28;;;23.40;99.90;;;;;;6257515;27;89209;-65
2022/10/15 14:19:48;;;;;;;3.72;1.77;;;23.40;99.90;;;;;;6258145;27;88971;-65
2022/10/15 14:22:51;;;;;;;3.63;1.67;;;23.40;99.90;;;;;;6256828;27;90143;-64
2022/10/15 14:25:57;;;;;;;4.80;1.73;;;23.40;99.90;;;;;;6259011;27;89132;-64
2022/10/15 14:28:59;;;;;;;3.90;1.63;;;23.40;99.90;;;;;;6257343;27;89060;-64
2022/10/15 14:32:02;;;;;;;3.88;1.95;;;23.40;99.90;;;;;;6258257;27;89137;-64
2022/10/15 14:35:04;;;;;;;3.40;1.63;;;23.40;99.90;;;;;;6257120;27;87975;-64
2022/10/15 14:38:16;;;;;;;5.57;1.90;;;23.40;99.90;;;;;;6257680;27;89020;-64
2022/10/15 14:41:29;;;;;;;3.40;1.90;;;23.40;99.90;;;;;;6244732;28;89215;-64
2022/10/15 14:44:42;;;;;;;4.82;1.60;;;23.40;99.90;;;;;;6246915;27;88678;-64
2022/10/15 14:47:45;;;;;;;4.03;1.55;;;23.40;99.90;;;;;;6234523;27;87987;-65
2022/10/15 14:50:47;;;;;;;3.97;1.70;;;23.40;99.90;;;;;;6248023;27;90648;-65
2022/10/15 14:53:51;;;;;;;3.60;1.55;;;23.40;99.90;;;;;;6246959;27;89958;-64
2022/10/15 14:56:54;;;;;;;4.20;1.67;;;23.40;99.90;;;;;;6252505;27;89373;-65
2022/10/15 14:59:58;;;;;;;5.47;1.98;;;23.40;99.90;;;;;;6253156;27;89077;-64
2022/10/15 15:03:04;;;;;;;1.90;1.40;;;23.40;99.90;;;;;;6259010;27;89485;-64
2022/10/15 15:06:06;;;;;;;3.10;1.70;;;23.40;99.90;;;;;;6246607;27;89189;-64
2022/10/15 15:09:08;;;;;;;3.13;1.60;;;23.40;99.90;;;;;;6257432;27;89441;-64
2022/10/15 15:12:19;;;;;;;3.25;1.52;;;23.40;99.90;;;;;;6256937;27;89089;-64
2022/10/15 15:15:23;;;;;;;4.43;1.50;;;23.40;99.90;;;;;;6258138;27;88544;-64
2022/10/15 15:18:27;;;;;;;3.83;1.70;;;23.40;99.90;;;;;;6256780;27;88983;-64
2022/10/15 15:21:29;;;;;;;4.45;1.80;;;23.40;99.90;;;;;;6256355;27;89044;-64
2022/10/15 15:24:31;;;;;;;4.53;1.88;;;23.40;99.90;;;;;;6256354;27;90097;-64
2022/10/15 15:27:36;;;;;;;3.42;1.50;;;23.40;99.90;;;;;;6244555;27;89019;-64
2022/10/15 15:30:41;;;;;;;2.40;1.52;;;23.40;99.90;;;;;;6256254;27;89443;-64
2022/10/15 15:33:43;;;;;;;4.43;1.95;;;23.40;99.90;;;;;;6253999;27;87775;-64
2022/10/15 15:36:45;;;;;;;2.70;1.40;;;23.40;99.90;;;;;;6244223;27;89533;-64
2022/10/15 15:39:48;;;;;;;3.60;1.60;;;23.40;99.90;;;;;;6253847;27;88031;-64
2022/10/15 15:42:51;;;;;;;2.58;1.40;;;23.40;99.90;;;;;;6248039;27;89022;-64
2022/10/15 15:45:53;;;;;;;3.80;1.42;;;23.50;99.90;;;;;;6258072;27;88514;-64
2022/10/15 15:48:57;;;;;;;3.53;1.70;;;23.40;99.90;;;;;;6257188;27;89460;-64
2022/10/15 15:51:59;;;;;;;2.30;1.60;;;23.40;99.90;;;;;;6256145;27;89145;-64
2022/10/15 15:55:01;;;;;;;3.35;1.80;;;23.40;99.90;;;;;;6242414;27;89985;-64
2022/10/15 15:58:04;;;;;;;3.17;1.95;;;23.40;99.90;;;;;;6255859;27;87970;-64